sensor_id;sensor_type;location;lat;lon;timestamp;pressure;altitude;pressure_sealevel;temperature
61595;BMP280;47397;48.194;11.632;2023-06-26T00:00:28;96011.50;;;15.92
61595;BMP280;47397;48.194;11.632;2023-06-26T00:01:28;96011.44;;;15.94
61595;BMP280;47397;48.194;11.632;2023-06-26T00:02:29;96011.13;;;15.81
61595;BMP280;47397;48.194;11.632;2023-06-26T00:03:29;96017.78;;;15.85
61595;BMP280;47397;48.194;11.632;2023-06-26T00:04:29;96011.19;;;15.80
61595;BMP280;47397;48.194;11.632;2023-06-26T00:05:30;96009.00;;;15.91
61595;BMP280;47397;48.194;11.632;2023-06-26T00:06:30;96007.59;;;15.84
61595;BMP280;47397;48.194;11.632;2023-06-26T00:07:31;96004.19;;;15.83
61595;BMP280;47397;48.194;11.632;2023-06-26T00:08:31;96010.66;;;15.92
61595;BMP280;47397;48.194;11.632;2023-06-26T00:09:32;96013.09;;;15.95
61595;BMP280;47397;48.194;11.632;2023-06-26T00:10:34;96004.75;;;15.90
61595;BMP280;47397;48.194;11.632;2023-06-26T00:11:34;96011.56;;;15.91
61595;BMP280;47397;48.194;11.632;2023-06-26T00:12:34;96009.59;;;15.77
61595;BMP280;47397;48.194;11.632;2023-06-26T00:13:35;96008.38;;;15.66
61595;BMP280;47397;48.194;11.632;2023-06-26T00:14:35;96014.16;;;15.71
61595;BMP280;47397;48.194;11.632;2023-06-26T00:15:36;96010.69;;;15.72
61595;BMP280;47397;48.194;11.632;2023-06-26T00:16:36;96011.59;;;15.71
61595;BMP280;47397;48.194;11.632;2023-06-26T00:17:37;96004.81;;;15.70
61595;BMP280;47397;48.194;11.632;2023-06-26T00:18:38;96011.47;;;15.74
61595;BMP280;47397;48.194;11.632;2023-06-26T00:19:38;96011.25;;;15.78
61595;BMP280;47397;48.194;11.632;2023-06-26T00:20:38;96013.31;;;15.70
61595;BMP280;47397;48.194;11.632;2023-06-26T00:21:39;96014.16;;;15.71
61595;BMP280;47397;48.194;11.632;2023-06-26T00:22:39;96020.25;;;15.68
61595;BMP280;47397;48.194;11.632;2023-06-26T00:23:40;96019.09;;;15.53
61595;BMP280;47397;48.194;11.632;2023-06-26T00:24:40;96021.41;;;15.39
61595;BMP280;47397;48.194;11.632;2023-06-26T00:25:42;96012.63;;;15.24
61595;BMP280;47397;48.194;11.632;2023-06-26T00:26:43;96015.31;;;15.42
61595;BMP280;47397;48.194;11.632;2023-06-26T00:27:43;96013.72;;;15.39
61595;BMP280;47397;48.194;11.632;2023-06-26T00:28:43;96018.25;;;15.32
61595;BMP280;47397;48.194;11.632;2023-06-26T00:29:44;96020.38;;;15.43
61595;BMP280;47397;48.194;11.632;2023-06-26T00:30:44;96019.03;;;15.35
61595;BMP280;47397;48.194;11.632;2023-06-26T00:31:45;96021.28;;;15.42
61595;BMP280;47397;48.194;11.632;2023-06-26T00:32:45;96031.38;;;15.45
61595;BMP280;47397;48.194;11.632;2023-06-26T00:33:48;96027.59;;;15.33
61595;BMP280;47397;48.194;11.632;2023-06-26T00:34:48;96024.16;;;15.35
61595;BMP280;47397;48.194;11.632;2023-06-26T00:35:49;96022.34;;;15.37
61595;BMP280;47397;48.194;11.632;2023-06-26T00:36:49;96025.03;;;15.33
61595;BMP280;47397;48.194;11.632;2023-06-26T00:37:50;96020.34;;;15.23
61595;BMP280;47397;48.194;11.632;2023-06-26T00:38:50;96020.81;;;15.11
61595;BMP280;47397;48.194;11.632;2023-06-26T00:39:50;96022.13;;;15.21
61595;BMP280;47397;48.194;11.632;2023-06-26T00:40:52;96033.56;;;15.12
61595;BMP280;47397;48.194;11.632;2023-06-26T00:41:53;96021.78;;;15.08
61595;BMP280;47397;48.194;11.632;2023-06-26T00:42:53;96029.53;;;15.07
61595;BMP280;47397;48.194;11.632;2023-06-26T00:43:53;96025.13;;;15.10
61595;BMP280;47397;48.194;11.632;2023-06-26T00:44:54;96021.31;;;14.98
61595;BMP280;47397;48.194;11.632;2023-06-26T00:45:55;96020.50;;;14.98
61595;BMP280;47397;48.194;11.632;2023-06-26T00:46:55;96022.88;;;15.02
61595;BMP280;47397;48.194;11.632;2023-06-26T00:47:56;96025.13;;;15.10
61595;BMP280;47397;48.194;11.632;2023-06-26T00:48:59;96024.69;;;15.21
61595;BMP280;47397;48.194;11.632;2023-06-26T00:49:59;96018.97;;;15.14
61595;BMP280;47397;48.194;11.632;2023-06-26T00:51:00;96025.56;;;15.20
61595;BMP280;47397;48.194;11.632;2023-06-26T00:52:00;96014.38;;;15.22
61595;BMP280;47397;48.194;11.632;2023-06-26T00:53:01;96022.88;;;15.02
61595;BMP280;47397;48.194;11.632;2023-06-26T00:54:02;96020.94;;;15.08
61595;BMP280;47397;48.194;11.632;2023-06-26T00:55:02;96024.16;;;15.13
61595;BMP280;47397;48.194;11.632;2023-06-26T00:56:05;96026.47;;;15.19
61595;BMP280;47397;48.194;11.632;2023-06-26T00:57:06;96028.50;;;15.11
61595;BMP280;47397;48.194;11.632;2023-06-26T00:58:06;96025.19;;;15.09
61595;BMP280;47397;48.194;11.632;2023-06-26T00:59:06;96021.19;;;15.01
61595;BMP280;47397;48.194;11.632;2023-06-26T01:00:08;96021.25;;;15.00
61595;BMP280;47397;48.194;11.632;2023-06-26T01:01:09;96024.34;;;15.08
61595;BMP280;47397;48.194;11.632;2023-06-26T01:02:09;96019.91;;;14.91
61595;BMP280;47397;48.194;11.632;2023-06-26T01:03:10;96020.38;;;15.01
61595;BMP280;47397;48.194;11.632;2023-06-26T01:04:10;96022.75;;;15.06
61595;BMP280;47397;48.194;11.632;2023-06-26T01:05:11;96022.41;;;14.93
61595;BMP280;47397;48.194;11.632;2023-06-26T01:06:14;96026.88;;;14.88
61595;BMP280;47397;48.194;11.632;2023-06-26T01:07:16;96020.59;;;14.95
61595;BMP280;47397;48.194;11.632;2023-06-26T01:08:17;96022.34;;;14.94
61595;BMP280;47397;48.194;11.632;2023-06-26T01:09:18;96021.25;;;15.00
61595;BMP280;47397;48.194;11.632;2023-06-26T01:10:19;96022.34;;;14.94
61595;BMP280;47397;48.194;11.632;2023-06-26T01:11:21;96013.88;;;14.92
61595;BMP280;47397;48.194;11.632;2023-06-26T01:12:22;96026.25;;;14.81
61595;BMP280;47397;48.194;11.632;2023-06-26T01:13:22;96014.66;;;14.94
61595;BMP280;47397;48.194;11.632;2023-06-26T01:14:23;96026.19;;;14.83
61595;BMP280;47397;48.194;11.632;2023-06-26T01:15:24;96019.22;;;14.86
61595;BMP280;47397;48.194;11.632;2023-06-26T01:16:25;96022.25;;;14.74
61595;BMP280;47397;48.194;11.632;2023-06-26T01:17:26;96028.03;;;14.79
61595;BMP280;47397;48.194;11.632;2023-06-26T01:18:27;96021.19;;;14.80
61595;BMP280;47397;48.194;11.632;2023-06-26T01:19:30;96017.28;;;14.93
61595;BMP280;47397;48.194;11.632;2023-06-26T01:20:31;96015.75;;;14.89
61595;BMP280;47397;48.194;11.632;2023-06-26T01:21:32;96021.25;;;15.00
61595;BMP280;47397;48.194;11.632;2023-06-26T01:22:38;96017.91;;;14.76
61595;BMP280;47397;48.194;11.632;2023-06-26T01:23:52;96023.63;;;14.61
61595;BMP280;47397;48.194;11.632;2023-06-26T01:25:03;96021.25;;;14.78
61595;BMP280;47397;48.194;11.632;2023-06-26T01:26:19;96023.56;;;14.62
61595;BMP280;47397;48.194;11.632;2023-06-26T01:27:21;96020.34;;;14.79
61595;BMP280;47397;48.194;11.632;2023-06-26T01:28:23;96025.09;;;14.66
61595;BMP280;47397;48.194;11.632;2023-06-26T01:29:25;96016.53;;;14.67
61595;BMP280;47397;48.194;11.632;2023-06-26T01:30:26;96021.53;;;14.70
61595;BMP280;47397;48.194;11.632;2023-06-26T01:31:28;96021.66;;;14.67
61595;BMP280;47397;48.194;11.632;2023-06-26T01:32:30;96022.38;;;14.71
61595;BMP280;47397;48.194;11.632;2023-06-26T01:33:32;96018.69;;;14.78
61595;BMP280;47397;48.194;11.632;2023-06-26T01:34:33;96025.59;;;14.76
61595;BMP280;47397;48.194;11.632;2023-06-26T01:35:34;96015.59;;;14.70
61595;BMP280;47397;48.194;11.632;2023-06-26T01:36:34;96020.16;;;14.62
61595;BMP280;47397;48.194;11.632;2023-06-26T01:37:35;96024.56;;;14.58
61595;BMP280;47397;48.194;11.632;2023-06-26T01:38:35;96015.66;;;14.68
61595;BMP280;47397;48.194;11.632;2023-06-26T01:39:36;96016.84;;;14.60
61595;BMP280;47397;48.194;11.632;2023-06-26T01:40:36;96018.06;;;14.50
61595;BMP280;47397;48.194;11.632;2023-06-26T01:41:38;96022.00;;;14.58
61595;BMP280;47397;48.194;11.632;2023-06-26T01:42:39;96021.78;;;14.64
61595;BMP280;47397;48.194;11.632;2023-06-26T01:43:46;96017.50;;;14.65
61595;BMP280;47397;48.194;11.632;2023-06-26T01:44:49;96016.06;;;14.58
61595;BMP280;47397;48.194;11.632;2023-06-26T01:45:51;96016.94;;;14.57
61595;BMP280;47397;48.194;11.632;2023-06-26T01:46:59;96013.81;;;14.49
61595;BMP280;47397;48.194;11.632;2023-06-26T01:48:01;96019.41;;;14.60
61595;BMP280;47397;48.194;11.632;2023-06-26T01:49:04;96019.69;;;14.52
61595;BMP280;47397;48.194;11.632;2023-06-26T01:50:10;96011.97;;;14.54
61595;BMP280;47397;48.194;11.632;2023-06-26T01:51:13;96021.78;;;14.64
61595;BMP280;47397;48.194;11.632;2023-06-26T01:52:19;96015.22;;;14.57
61595;BMP280;47397;48.194;11.632;2023-06-26T01:53:24;96017.63;;;14.62
61595;BMP280;47397;48.194;11.632;2023-06-26T01:54:29;96016.59;;;14.66
61595;BMP280;47397;48.194;11.632;2023-06-26T01:55:35;96017.13;;;14.52
61595;BMP280;47397;48.194;11.632;2023-06-26T01:56:38;96017.50;;;14.65
61595;BMP280;47397;48.194;11.632;2023-06-26T01:57:40;96018.31;;;14.65
61595;BMP280;47397;48.194;11.632;2023-06-26T01:58:43;96021.91;;;14.61
61595;BMP280;47397;48.194;11.632;2023-06-26T01:59:46;96016.94;;;14.57
61595;BMP280;47397;48.194;11.632;2023-06-26T02:00:47;96015.00;;;14.63
61595;BMP280;47397;48.194;11.632;2023-06-26T02:01:48;96020.34;;;14.57
61595;BMP280;47397;48.194;11.632;2023-06-26T02:02:49;96014.91;;;14.42
61595;BMP280;47397;48.194;11.632;2023-06-26T02:03:50;96009.84;;;14.40
61595;BMP280;47397;48.194;11.632;2023-06-26T02:04:50;96022.81;;;14.35
61595;BMP280;47397;48.194;11.632;2023-06-26T02:05:51;96013.06;;;14.47
61595;BMP280;47397;48.194;11.632;2023-06-26T02:06:51;96011.25;;;14.49
61595;BMP280;47397;48.194;11.632;2023-06-26T02:07:52;96011.25;;;14.49
61595;BMP280;47397;48.194;11.632;2023-06-26T02:08:55;96016.34;;;14.50
61595;BMP280;47397;48.194;11.632;2023-06-26T02:09:56;96012.28;;;14.45
61595;BMP280;47397;48.194;11.632;2023-06-26T02:10:56;96014.00;;;14.44
61595;BMP280;47397;48.194;11.632;2023-06-26T02:11:59;96021.94;;;14.36
61595;BMP280;47397;48.194;11.632;2023-06-26T02:13:00;96014.06;;;14.43
61595;BMP280;47397;48.194;11.632;2023-06-26T02:14:00;96018.16;;;14.47
61595;BMP280;47397;48.194;11.632;2023-06-26T02:15:01;96013.31;;;14.39
61595;BMP280;47397;48.194;11.632;2023-06-26T02:16:01;96016.56;;;14.44
61595;BMP280;47397;48.194;11.632;2023-06-26T02:17:02;96008.94;;;14.43
61595;BMP280;47397;48.194;11.632;2023-06-26T02:18:02;96014.91;;;14.42
61595;BMP280;47397;48.194;11.632;2023-06-26T02:19:03;96021.81;;;14.39
61595;BMP280;47397;48.194;11.632;2023-06-26T02:20:04;96019.19;;;14.41
61595;BMP280;47397;48.194;11.632;2023-06-26T02:21:06;96025.94;;;14.44
61595;BMP280;47397;48.194;11.632;2023-06-26T02:22:07;96020.63;;;14.50
61595;BMP280;47397;48.194;11.632;2023-06-26T02:23:07;96018.38;;;14.40
61595;BMP280;47397;48.194;11.632;2023-06-26T02:24:08;96024.06;;;14.49
61595;BMP280;47397;48.194;11.632;2023-06-26T02:25:09;96021.50;;;14.49
61595;BMP280;47397;48.194;11.632;2023-06-26T02:26:09;96016.63;;;14.43
61595;BMP280;47397;48.194;11.632;2023-06-26T02:27:11;96021.66;;;14.44
61595;BMP280;47397;48.194;11.632;2023-06-26T02:28:12;96020.25;;;14.35
61595;BMP280;47397;48.194;11.632;2023-06-26T02:29:12;96018.59;;;14.34
61595;BMP280;47397;48.194;11.632;2023-06-26T02:30:13;96015.03;;;14.38
61595;BMP280;47397;48.194;11.632;2023-06-26T02:31:13;96013.59;;;14.31
61595;BMP280;47397;48.194;11.632;2023-06-26T02:32:13;96023.41;;;14.44
61595;BMP280;47397;48.194;11.632;2023-06-26T02:33:14;96026.84;;;14.43
61595;BMP280;47397;48.194;11.632;2023-06-26T02:34:14;96022.66;;;14.40
61595;BMP280;47397;48.194;11.632;2023-06-26T02:35:15;96029.41;;;14.43
61595;BMP280;47397;48.194;11.632;2023-06-26T02:36:15;96024.94;;;14.48
61595;BMP280;47397;48.194;11.632;2023-06-26T02:37:16;96021.63;;;14.46
61595;BMP280;47397;48.194;11.632;2023-06-26T02:38:16;96023.13;;;14.51
61595;BMP280;47397;48.194;11.632;2023-06-26T02:39:16;96020.66;;;14.48
61595;BMP280;47397;48.194;11.632;2023-06-26T02:40:17;96022.25;;;14.52
61595;BMP280;47397;48.194;11.632;2023-06-26T02:41:17;96021.25;;;14.31
61595;BMP280;47397;48.194;11.632;2023-06-26T02:42:19;96017.69;;;14.35
61595;BMP280;47397;48.194;11.632;2023-06-26T02:43:19;96017.16;;;14.27
61595;BMP280;47397;48.194;11.632;2023-06-26T02:44:20;96014.72;;;14.24
61595;BMP280;47397;48.194;11.632;2023-06-26T02:45:20;96017.88;;;14.31
61595;BMP280;47397;48.194;11.632;2023-06-26T02:46:21;96019.53;;;14.32
61595;BMP280;47397;48.194;11.632;2023-06-26T02:47:21;96020.88;;;14.42
61595;BMP280;47397;48.194;11.632;2023-06-26T02:48:21;96016.09;;;14.33
61595;BMP280;47397;48.194;11.632;2023-06-26T02:49:22;96013.72;;;14.28
61595;BMP280;47397;48.194;11.632;2023-06-26T02:50:22;96020.25;;;14.12
61595;BMP280;47397;48.194;11.632;2023-06-26T02:51:23;96021.66;;;14.21
61595;BMP280;47397;48.194;11.632;2023-06-26T02:52:23;96013.66;;;14.30
61595;BMP280;47397;48.194;11.632;2023-06-26T02:53:23;96017.28;;;14.24
61595;BMP280;47397;48.194;11.632;2023-06-26T02:54:24;96030.16;;;14.21
61595;BMP280;47397;48.194;11.632;2023-06-26T02:55:24;96021.25;;;14.31
61595;BMP280;47397;48.194;11.632;2023-06-26T02:56:25;96026.16;;;14.14
61595;BMP280;47397;48.194;11.632;2023-06-26T02:57:27;96027.56;;;14.23
61595;BMP280;47397;48.194;11.632;2023-06-26T02:58:27;96020.78;;;14.22
61595;BMP280;47397;48.194;11.632;2023-06-26T02:59:27;96020.59;;;14.26
61595;BMP280;47397;48.194;11.632;2023-06-26T03:00:28;96020.50;;;14.29
61595;BMP280;47397;48.194;11.632;2023-06-26T03:01:28;96015.25;;;14.32
61595;BMP280;47397;48.194;11.632;2023-06-26T03:02:29;96013.47;;;14.34
61595;BMP280;47397;48.194;11.632;2023-06-26T03:03:29;96015.38;;;14.29
61595;BMP280;47397;48.194;11.632;2023-06-26T03:04:30;96023.75;;;14.33
61595;BMP280;47397;48.194;11.632;2023-06-26T03:05:30;96020.25;;;14.35
61595;BMP280;47397;48.194;11.632;2023-06-26T03:06:30;96018.50;;;14.14
61595;BMP280;47397;48.194;11.632;2023-06-26T03:07:31;96017.75;;;14.11
61595;BMP280;47397;48.194;11.632;2023-06-26T03:08:31;96016.25;;;14.05
61595;BMP280;47397;48.194;11.632;2023-06-26T03:09:32;96016.97;;;14.08
61595;BMP280;47397;48.194;11.632;2023-06-26T03:10:32;96019.22;;;14.18
61595;BMP280;47397;48.194;11.632;2023-06-26T03:11:32;96016.59;;;14.19
61595;BMP280;47397;48.194;11.632;2023-06-26T03:12:34;96014.09;;;14.18
61595;BMP280;47397;48.194;11.632;2023-06-26T03:13:36;96014.16;;;14.16
61595;BMP280;47397;48.194;11.632;2023-06-26T03:14:36;96015.81;;;14.17
61595;BMP280;47397;48.194;11.632;2023-06-26T03:15:37;96015.34;;;14.06
61595;BMP280;47397;48.194;11.632;2023-06-26T03:16:37;96010.97;;;14.09
61595;BMP280;47397;48.194;11.632;2023-06-26T03:17:38;96024.91;;;14.01
61595;BMP280;47397;48.194;11.632;2023-06-26T03:18:38;96015.41;;;14.04
61595;BMP280;47397;48.194;11.632;2023-06-26T03:19:39;96012.28;;;13.96
61595;BMP280;47397;48.194;11.632;2023-06-26T03:20:39;96013.75;;;14.03
61595;BMP280;47397;48.194;11.632;2023-06-26T03:21:39;96015.03;;;13.92
61595;BMP280;47397;48.194;11.632;2023-06-26T03:22:40;96011.91;;;13.84
61595;BMP280;47397;48.194;11.632;2023-06-26T03:23:40;96018.56;;;13.88
61595;BMP280;47397;48.194;11.632;2023-06-26T03:24:41;96015.19;;;13.87
61595;BMP280;47397;48.194;11.632;2023-06-26T03:25:41;96016.69;;;13.93
61595;BMP280;47397;48.194;11.632;2023-06-26T03:26:41;96019.19;;;13.94
61595;BMP280;47397;48.194;11.632;2023-06-26T03:27:43;96020.56;;;14.03
61595;BMP280;47397;48.194;11.632;2023-06-26T03:28:43;96015.56;;;14.00
61595;BMP280;47397;48.194;11.632;2023-06-26T03:29:44;96017.06;;;14.05
61595;BMP280;47397;48.194;11.632;2023-06-26T03:30:44;96016.03;;;14.11
61595;BMP280;47397;48.194;11.632;2023-06-26T03:31:45;96016.84;;;14.12
61595;BMP280;47397;48.194;11.632;2023-06-26T03:32:45;96017.69;;;14.12
61595;BMP280;47397;48.194;11.632;2023-06-26T03:33:46;96017.81;;;14.09
61595;BMP280;47397;48.194;11.632;2023-06-26T03:34:46;96017.91;;;14.06
61595;BMP280;47397;48.194;11.632;2023-06-26T03:35:47;96022.03;;;14.10
61595;BMP280;47397;48.194;11.632;2023-06-26T03:36:47;96015.06;;;13.90
61595;BMP280;47397;48.194;11.632;2023-06-26T03:37:48;96018.72;;;13.83
61595;BMP280;47397;48.194;11.632;2023-06-26T03:38:48;96017.75;;;13.87
61595;BMP280;47397;48.194;11.632;2023-06-26T03:39:49;96019.19;;;13.94
61595;BMP280;47397;48.194;11.632;2023-06-26T03:40:49;96021.97;;;13.88
61595;BMP280;47397;48.194;11.632;2023-06-26T03:41:50;96028.72;;;13.89
61595;BMP280;47397;48.194;11.632;2023-06-26T03:42:52;96025.06;;;13.96
61595;BMP280;47397;48.194;11.632;2023-06-26T03:43:52;96029.84;;;14.05
61595;BMP280;47397;48.194;11.632;2023-06-26T03:44:52;96021.19;;;14.09
61595;BMP280;47397;48.194;11.632;2023-06-26T03:45:53;96021.09;;;14.13
61595;BMP280;47397;48.194;11.632;2023-06-26T03:46:53;96025.22;;;14.17
61595;BMP280;47397;48.194;11.632;2023-06-26T03:47:54;96021.34;;;14.05
61595;BMP280;47397;48.194;11.632;2023-06-26T03:48:54;96022.56;;;13.95
61595;BMP280;47397;48.194;11.632;2023-06-26T03:49:55;96020.91;;;13.94
61595;BMP280;47397;48.194;11.632;2023-06-26T03:50:55;96023.47;;;13.94
61595;BMP280;47397;48.194;11.632;2023-06-26T03:51:55;96021.34;;;14.05
61595;BMP280;47397;48.194;11.632;2023-06-26T03:52:56;96023.41;;;13.95
61595;BMP280;47397;48.194;11.632;2023-06-26T03:53:56;96018.81;;;14.05
61595;BMP280;47397;48.194;11.632;2023-06-26T03:54:57;96023.69;;;14.11
61595;BMP280;47397;48.194;11.632;2023-06-26T03:55:58;96023.66;;;14.13
61595;BMP280;47397;48.194;11.632;2023-06-26T03:56:58;96021.41;;;14.03
61595;BMP280;47397;48.194;11.632;2023-06-26T03:58:00;96023.56;;;13.91
61595;BMP280;47397;48.194;11.632;2023-06-26T03:59:00;96020.13;;;13.92
61595;BMP280;47397;48.194;11.632;2023-06-26T04:00:01;96022.91;;;13.86
61595;BMP280;47397;48.194;11.632;2023-06-26T04:01:01;96016.84;;;13.88
61595;BMP280;47397;48.194;11.632;2023-06-26T04:02:02;96019.56;;;13.84
61595;BMP280;47397;48.194;11.632;2023-06-26T04:03:02;96018.56;;;13.88
61595;BMP280;47397;48.194;11.632;2023-06-26T04:04:03;96018.34;;;13.94
61595;BMP280;47397;48.194;11.632;2023-06-26T04:05:04;96019.28;;;13.91
61595;BMP280;47397;48.194;11.632;2023-06-26T04:06:05;96023.19;;;14.01
61595;BMP280;47397;48.194;11.632;2023-06-26T04:07:05;96026.47;;;14.05
61595;BMP280;47397;48.194;11.632;2023-06-26T04:08:06;96025.34;;;14.14
61595;BMP280;47397;48.194;11.632;2023-06-26T04:09:06;96021.78;;;14.18
61595;BMP280;47397;48.194;11.632;2023-06-26T04:10:07;96024.38;;;14.16
61595;BMP280;47397;48.194;11.632;2023-06-26T04:11:08;96022.50;;;14.21
61595;BMP280;47397;48.194;11.632;2023-06-26T04:12:08;96026.16;;;14.14
61595;BMP280;47397;48.194;11.632;2023-06-26T04:13:10;96027.50;;;14.24
61595;BMP280;47397;48.194;11.632;2023-06-26T04:14:11;96030.94;;;14.23
61595;BMP280;47397;48.194;11.632;2023-06-26T04:15:11;96024.38;;;14.16
61595;BMP280;47397;48.194;11.632;2023-06-26T04:16:11;96024.09;;;14.24
61595;BMP280;47397;48.194;11.632;2023-06-26T04:17:12;96023.81;;;14.31
61595;BMP280;47397;48.194;11.632;2023-06-26T04:18:12;96028.56;;;14.19
61595;BMP280;47397;48.194;11.632;2023-06-26T04:19:13;96026.06;;;14.17
61595;BMP280;47397;48.194;11.632;2023-06-26T04:20:13;96029.16;;;14.25
61595;BMP280;47397;48.194;11.632;2023-06-26T04:21:14;96025.50;;;14.32
61595;BMP280;47397;48.194;11.632;2023-06-26T04:22:14;96024.16;;;14.22
61595;BMP280;47397;48.194;11.632;2023-06-26T04:23:14;96019.53;;;14.32
61595;BMP280;47397;48.194;11.632;2023-06-26T04:24:15;96022.75;;;14.37
61595;BMP280;47397;48.194;11.632;2023-06-26T04:25:15;96021.72;;;14.43
61595;BMP280;47397;48.194;11.632;2023-06-26T04:26:16;96020.03;;;14.42
61595;BMP280;47397;48.194;11.632;2023-06-26T04:27:16;96016.69;;;14.39
61595;BMP280;47397;48.194;11.632;2023-06-26T04:28:18;96019.94;;;14.45
61595;BMP280;47397;48.194;11.632;2023-06-26T04:29:18;96020.72;;;14.47
61595;BMP280;47397;48.194;11.632;2023-06-26T04:30:19;96020.63;;;14.50
61595;BMP280;47397;48.194;11.632;2023-06-26T04:31:19;96016.13;;;14.56
61595;BMP280;47397;48.194;11.632;2023-06-26T04:32:20;96020.53;;;14.53
61595;BMP280;47397;48.194;11.632;2023-06-26T04:33:20;96028.19;;;14.53
61595;BMP280;47397;48.194;11.632;2023-06-26T04:34:21;96027.38;;;14.52
61595;BMP280;47397;48.194;11.632;2023-06-26T04:35:21;96031.41;;;14.58
61595;BMP280;47397;48.194;11.632;2023-06-26T04:36:22;96030.53;;;14.59
61595;BMP280;47397;48.194;11.632;2023-06-26T04:37:22;96027.06;;;14.60
61595;BMP280;47397;48.194;11.632;2023-06-26T04:38:23;96030.47;;;14.60
61595;BMP280;47397;48.194;11.632;2023-06-26T04:39:23;96029.28;;;14.69
61595;BMP280;47397;48.194;11.632;2023-06-26T04:40:23;96031.13;;;14.65
61595;BMP280;47397;48.194;11.632;2023-06-26T04:41:24;96028.84;;;14.58
61595;BMP280;47397;48.194;11.632;2023-06-26T04:42:25;96026.28;;;14.58
61595;BMP280;47397;48.194;11.632;2023-06-26T04:43:27;96027.72;;;14.65
61595;BMP280;47397;48.194;11.632;2023-06-26T04:44:27;96026.84;;;14.66
61595;BMP280;47397;48.194;11.632;2023-06-26T04:45:28;96021.41;;;14.74
61595;BMP280;47397;48.194;11.632;2023-06-26T04:46:28;96021.47;;;14.72
61595;BMP280;47397;48.194;11.632;2023-06-26T04:47:28;96019.56;;;14.77
61595;BMP280;47397;48.194;11.632;2023-06-26T04:48:29;96027.91;;;14.82
61595;BMP280;47397;48.194;11.632;2023-06-26T04:49:29;96030.59;;;14.79
61595;BMP280;47397;48.194;11.632;2023-06-26T04:50:30;96030.34;;;14.85
61595;BMP280;47397;48.194;11.632;2023-06-26T04:51:30;96021.00;;;14.84
61595;BMP280;47397;48.194;11.632;2023-06-26T04:52:31;96019.78;;;14.94
61595;BMP280;47397;48.194;11.632;2023-06-26T04:53:31;96022.09;;;15.00
61595;BMP280;47397;48.194;11.632;2023-06-26T04:54:32;96020.50;;;14.98
61595;BMP280;47397;48.194;11.632;2023-06-26T04:55:32;96023.47;;;14.87
61595;BMP280;47397;48.194;11.632;2023-06-26T04:56:32;96015.56;;;14.93
61595;BMP280;47397;48.194;11.632;2023-06-26T04:57:33;96013.94;;;14.91
61595;BMP280;47397;48.194;11.632;2023-06-26T04:58:35;96021.13;;;15.03
61595;BMP280;47397;48.194;11.632;2023-06-26T04:59:35;96020.94;;;15.08
61595;BMP280;47397;48.194;11.632;2023-06-26T05:00:35;96018.28;;;15.11
61595;BMP280;47397;48.194;11.632;2023-06-26T05:01:36;96017.38;;;15.12
61595;BMP280;47397;48.194;11.632;2023-06-26T05:02:36;96017.44;;;15.10
61595;BMP280;47397;48.194;11.632;2023-06-26T05:03:37;96010.28;;;15.18
61595;BMP280;47397;48.194;11.632;2023-06-26T05:04:37;96017.56;;;15.29
61595;BMP280;47397;48.194;11.632;2023-06-26T05:05:38;96014.34;;;15.24
61595;BMP280;47397;48.194;11.632;2023-06-26T05:06:38;96017.38;;;15.33
61595;BMP280;47397;48.194;11.632;2023-06-26T05:07:41;96025.09;;;15.32
61595;BMP280;47397;48.194;11.632;2023-06-26T05:08:41;96029.84;;;15.41
61595;BMP280;47397;48.194;11.632;2023-06-26T05:09:42;96018.66;;;15.44
61595;BMP280;47397;48.194;11.632;2023-06-26T05:10:42;96023.38;;;15.53
61595;BMP280;47397;48.194;11.632;2023-06-26T05:11:43;96022.69;;;15.49
61595;BMP280;47397;48.194;11.632;2023-06-26T05:12:43;96032.28;;;15.44
61595;BMP280;47397;48.194;11.632;2023-06-26T05:13:45;96031.91;;;15.53
61595;BMP280;47397;48.194;11.632;2023-06-26T05:14:45;96027.69;;;15.52
61595;BMP280;47397;48.194;11.632;2023-06-26T05:15:46;96017.97;;;15.60
61595;BMP280;47397;48.194;11.632;2023-06-26T05:16:46;96022.25;;;15.60
61595;BMP280;47397;48.194;11.632;2023-06-26T05:17:47;96020.25;;;15.68
61595;BMP280;47397;48.194;11.632;2023-06-26T05:18:47;96018.25;;;15.75
61595;BMP280;47397;48.194;11.632;2023-06-26T05:19:48;96019.78;;;15.79
61595;BMP280;47397;48.194;11.632;2023-06-26T05:20:49;96020.16;;;15.90
61595;BMP280;47397;48.194;11.632;2023-06-26T05:21:50;96025.13;;;16.13
61595;BMP280;47397;48.194;11.632;2023-06-26T05:22:50;96021.34;;;16.41
61595;BMP280;47397;48.194;11.632;2023-06-26T05:23:55;96026.25;;;16.64
61595;BMP280;47397;48.194;11.632;2023-06-26T05:24:58;96029.38;;;17.08
61595;BMP280;47397;48.194;11.632;2023-06-26T05:26:00;96022.53;;;17.26
61595;BMP280;47397;48.194;11.632;2023-06-26T05:27:00;96021.28;;;17.52
61595;BMP280;47397;48.194;11.632;2023-06-26T05:28:02;96023.47;;;17.77
61595;BMP280;47397;48.194;11.632;2023-06-26T05:29:04;96016.84;;;17.90
61595;BMP280;47397;48.194;11.632;2023-06-26T05:30:06;96022.75;;;18.41
61595;BMP280;47397;48.194;11.632;2023-06-26T05:31:07;96014.69;;;18.64
61595;BMP280;47397;48.194;11.632;2023-06-26T05:32:08;96025.31;;;18.90
61595;BMP280;47397;48.194;11.632;2023-06-26T05:33:11;96017.09;;;19.45
61595;BMP280;47397;48.194;11.632;2023-06-26T05:34:13;96023.34;;;18.63
61595;BMP280;47397;48.194;11.632;2023-06-26T05:35:13;96014.41;;;19.16
61595;BMP280;47397;48.194;11.632;2023-06-26T05:36:16;96014.25;;;19.49
61595;BMP280;47397;48.194;11.632;2023-06-26T05:37:20;96012.16;;;19.86
61595;BMP280;47397;48.194;11.632;2023-06-26T05:38:21;96009.88;;;20.24
61595;BMP280;47397;48.194;11.632;2023-06-26T05:39:22;96019.78;;;20.46
61595;BMP280;47397;48.194;11.632;2023-06-26T05:40:23;96015.53;;;20.59
61595;BMP280;47397;48.194;11.632;2023-06-26T05:41:24;96017.25;;;20.73
61595;BMP280;47397;48.194;11.632;2023-06-26T05:42:26;96013.66;;;20.04
61595;BMP280;47397;48.194;11.632;2023-06-26T05:43:26;96014.44;;;20.49
61595;BMP280;47397;48.194;11.632;2023-06-26T05:44:28;96012.56;;;21.06
61595;BMP280;47397;48.194;11.632;2023-06-26T05:45:29;96012.34;;;21.24
61595;BMP280;47397;48.194;11.632;2023-06-26T05:46:29;96008.78;;;20.28